Clinton, OK

8:43 PM CST on January 21, 2017 (GMT -0600)
Clinton

Weather History for KCLK - July, 2013

Change the Weather History Date:

Sunday, July 21, 2013

  Actual Average (KCSM) Record (KCSM)
Temperature  
Mean Temperature 84 °F -  
Max Temperature 96 °F 95 °F 107 °F (2012)
Min Temperature 73 °F 70 °F 64 °F (2000)
Cooling Degree Days 20    
Growing Degree Days 34 (Base 50)    
Moisture  
Dew Point 57 °F    
Average Humidity 43    
Maximum Humidity 73    
Minimum Humidity 18    
Precipitation  
Precipitation 0.00 in - - ()
Sea Level Pressure  
Sea Level Pressure 29.88 in    
Wind  
Wind Speed 9 mph (SSW)    
Max Wind Speed 16 mph    
Max Gust Speed 23 mph    
Visibility 10 miles    
Events      
Averages and records for this station are not official NWS values.
T = Trace of Precipitation, MM = Missing Value Source: NWS Daily Summary

Daily Weather History Graph

Daily Weather History Graph

Search for Another Location

Airport or City:

Trip Planner

Search our weather history database for the weather conditions in past years. The results will help you decide how hot, cold, wet, or windy it might be!

Date:

Astronomy

Jul. 21, 2013 Rise Set
Actual Time 6:36 AM CDT 8:47 PM CDT
Civil Twilight 6:07 AM CDT 9:16 PM CDT
Nautical Twilight 5:31 AM CDT 9:51 PM CDT
Astronomical Twilight 4:53 AM CDT 10:29 PM CDT
Moon 7:49 PM CDT (7/21) 5:22 AM CDT (7/21)
Length of Visible Light 15h 09m
Length of Day
14h 11m
Waxing Gibbous, 98% of the Moon is Illuminated
Jul 21
Waxing Gibbous
Jul 22
Full
Jul 29
Last Quarter
Aug 6
New
Aug 14
First Quarter

Hourly Weather History & Observations

Time (CDT) Temp. Heat Index Dew Point Humidity Pressure Visibility Wind Dir Wind Speed Gust Speed Precip Events Conditions
12:15 AM 78.8 °F - 60.8 °F 54% 29.91 in 10.0 mi SSE 8.1 mph - N/A   Unknown
12:35 AM 78.8 °F - 62.6 °F 57% 29.91 in 10.0 mi South 8.1 mph - N/A   Unknown
12:55 AM 78.8 °F - 62.6 °F 57% 29.91 in 10.0 mi SSE 8.1 mph - N/A   Unknown
1:15 AM 78.8 °F - 62.6 °F 57% 29.91 in 10.0 mi SSE 8.1 mph - N/A   Unknown
1:35 AM 77.0 °F - 62.6 °F 61% 29.90 in 10.0 mi SSE 9.2 mph - N/A   Unknown
1:55 AM 77.0 °F - 62.6 °F 61% 29.90 in 10.0 mi SSE 9.2 mph - N/A   Unknown
2:15 AM 78.8 °F - 62.6 °F 57% 29.90 in 10.0 mi SSE 10.4 mph - N/A   Unknown
2:35 AM 78.8 °F - 62.6 °F 57% 29.90 in 10.0 mi SSE 10.4 mph - N/A   Unknown
2:55 AM 78.8 °F - 62.6 °F 57% 29.89 in 10.0 mi SSE 9.2 mph - N/A   Unknown
3:15 AM 78.8 °F - 62.6 °F 57% 29.90 in 10.0 mi SSE 8.1 mph - N/A   Unknown
3:35 AM 78.8 °F - 62.6 °F 57% 29.89 in 10.0 mi SSE 8.1 mph - N/A   Unknown
3:55 AM 77.0 °F - 62.6 °F 61% 29.89 in 10.0 mi South 8.1 mph - N/A   Unknown
4:15 AM 77.0 °F - 62.6 °F 61% 29.89 in 10.0 mi SSE 8.1 mph - N/A   Unknown
4:35 AM 77.0 °F - 62.6 °F 61% 29.90 in 10.0 mi South 5.8 mph - N/A   Unknown
4:55 AM 77.0 °F - 62.6 °F 61% 29.89 in 10.0 mi South 8.1 mph - N/A   Unknown
5:15 AM 77.0 °F - 62.6 °F 61% 29.89 in 10.0 mi South 6.9 mph - N/A   Unknown
5:35 AM 77.0 °F - 62.6 °F 61% 29.89 in 10.0 mi South 5.8 mph - N/A   Unknown
5:55 AM 75.2 °F - 64.4 °F 69% 29.90 in 10.0 mi South 6.9 mph - N/A   Unknown
6:15 AM 73.4 °F - 64.4 °F 73% 29.90 in 10.0 mi South 8.1 mph - N/A   Unknown
6:35 AM 73.4 °F - 64.4 °F 73% 29.91 in 10.0 mi South 5.8 mph - N/A   Unknown
6:55 AM 73.4 °F - 64.4 °F 73% 29.91 in 10.0 mi South 6.9 mph - N/A   Unknown
7:15 AM 73.4 °F - 64.4 °F 73% 29.90 in 10.0 mi South 4.6 mph - N/A   Unknown
7:35 AM 73.4 °F - 64.4 °F 73% 29.91 in 10.0 mi Calm Calm - N/A   Unknown
7:55 AM 73.4 °F - 64.4 °F 73% 29.90 in 10.0 mi South 3.5 mph - N/A   Unknown
8:15 AM 75.2 °F - 64.4 °F 69% 29.90 in 10.0 mi South 3.5 mph - N/A   Unknown
8:35 AM 75.2 °F - 64.4 °F 69% 29.91 in 10.0 mi SSE 3.5 mph - N/A   Unknown
8:55 AM 77.0 °F - 64.4 °F 65% 29.91 in 10.0 mi South 4.6 mph - N/A   Unknown
9:15 AM 78.8 °F - 64.4 °F 61% 29.91 in 10.0 mi South 5.8 mph - N/A   Unknown
9:35 AM 82.4 °F 83.4 °F 62.6 °F 51% 29.91 in 10.0 mi SSW 6.9 mph - N/A   Unknown
9:55 AM 82.4 °F 83.4 °F 62.6 °F 51% 29.91 in 10.0 mi SSW 5.8 mph - N/A   Unknown
10:15 AM 82.4 °F 83.4 °F 62.6 °F 51% 29.92 in 10.0 mi SSW 5.8 mph - N/A   Unknown
10:35 AM 84.2 °F 84.4 °F 60.8 °F 45% 29.92 in 10.0 mi SSW 5.8 mph - N/A   Unknown
10:55 AM 86.0 °F 85.4 °F 59.0 °F 40% 29.92 in 10.0 mi SW 10.4 mph - N/A   Unknown
11:15 AM 86.0 °F 84.5 °F 55.4 °F 35% 29.92 in 10.0 mi WSW 10.4 mph - N/A   Unknown
11:35 AM 87.8 °F 86.1 °F 55.4 °F 33% 29.92 in 10.0 mi SW 12.7 mph - N/A   Unknown
11:55 AM 89.6 °F 87.7 °F 55.4 °F 31% 29.91 in 10.0 mi WSW 10.4 mph 16.1 mph N/A   Unknown
12:15 PM 91.4 °F 89.4 °F 55.4 °F 29% 29.91 in 10.0 mi WSW 13.8 mph 19.6 mph N/A   Unknown
1:15 PM 93.2 °F 90.8 °F 53.6 °F 26% 29.89 in 10.0 mi SSW 9.2 mph - N/A   Unknown
1:35 PM 95.0 °F - 51.8 °F 23% 29.89 in 10.0 mi SSW 13.8 mph 17.3 mph N/A   Unknown
1:55 PM 95.0 °F - 51.8 °F 23% 29.88 in 10.0 mi SW 15.0 mph 20.7 mph N/A   Unknown
2:15 PM 95.0 °F - 51.8 °F 23% 29.88 in 10.0 mi SSW 12.7 mph 20.7 mph N/A   Unknown
2:35 PM 95.0 °F - 46.4 °F 19% 29.86 in 10.0 mi SSW 13.8 mph 20.7 mph N/A   Unknown
2:55 PM 95.0 °F - 50.0 °F 22% 29.86 in 10.0 mi SW 15.0 mph - N/A   Unknown
3:15 PM 95.0 °F - 50.0 °F 22% 29.86 in 10.0 mi SSW 13.8 mph 21.9 mph N/A   Unknown
3:35 PM 96.8 °F - 50.0 °F 20% 29.85 in 10.0 mi WSW 13.8 mph 21.9 mph N/A   Unknown
3:55 PM 96.8 °F - 50.0 °F 20% 29.84 in 10.0 mi SW 12.7 mph 18.4 mph N/A   Unknown
4:15 PM 96.8 °F - 46.4 °F 18% 29.84 in 10.0 mi WSW 15.0 mph 23.0 mph N/A   Unknown
4:35 PM 96.8 °F - 48.2 °F 19% 29.84 in 10.0 mi SSW 12.7 mph 21.9 mph N/A   Unknown
4:55 PM 96.8 °F - 48.2 °F 19% 29.84 in 10.0 mi SSW 13.8 mph 21.9 mph N/A   Unknown
5:15 PM 96.8 °F - 46.4 °F 18% 29.84 in 10.0 mi SW 16.1 mph 20.7 mph N/A   Unknown
5:35 PM 96.8 °F - 46.4 °F 18% 29.83 in 10.0 mi SW 11.5 mph 18.4 mph N/A   Unknown
5:55 PM 96.8 °F - 46.4 °F 18% 29.82 in 10.0 mi SW 11.5 mph 18.4 mph N/A   Unknown
6:15 PM 96.8 °F - 50.0 °F 20% 29.82 in 10.0 mi SW 15.0 mph 19.6 mph N/A   Unknown
6:35 PM 96.8 °F - 48.2 °F 19% 29.82 in 10.0 mi SW 12.7 mph 16.1 mph N/A   Unknown
6:55 PM 96.8 °F - 48.2 °F 19% 29.81 in 10.0 mi SW 9.2 mph - N/A   Unknown
7:15 PM 95.0 °F - 48.2 °F 20% 29.82 in 10.0 mi SSW 12.7 mph 21.9 mph N/A   Unknown
7:35 PM 95.0 °F - 50.0 °F 22% 29.82 in 10.0 mi SSW 11.5 mph 19.6 mph N/A   Unknown
7:55 PM 95.0 °F - 51.8 °F 23% 29.83 in 10.0 mi SW 13.8 mph 20.7 mph N/A   Unknown
8:15 PM 91.4 °F - 51.8 °F 26% 29.83 in 10.0 mi SSW 15.0 mph - N/A   Unknown
8:35 PM 91.4 °F - 51.8 °F 26% 29.84 in 10.0 mi SSW 10.4 mph - N/A   Unknown
8:55 PM 89.6 °F - 51.8 °F 27% 29.84 in 10.0 mi SSW 9.2 mph - N/A   Unknown
9:15 PM 89.6 °F - 51.8 °F 27% 29.84 in 10.0 mi SSW 9.2 mph - N/A   Unknown
9:35 PM 87.8 °F 85.7 °F 53.6 °F 31% 29.84 in 10.0 mi South 10.4 mph - N/A   Unknown
9:55 PM 86.0 °F 84.5 °F 55.4 °F 35% 29.85 in 10.0 mi South 10.4 mph - N/A   Unknown
10:15 PM 86.0 °F 84.5 °F 55.4 °F 35% 29.86 in 10.0 mi South 10.4 mph - N/A   Unknown
10:35 PM 86.0 °F 84.9 °F 57.2 °F 37% 29.86 in 10.0 mi South 10.4 mph - N/A   Unknown
10:55 PM 84.2 °F 83.5 °F 57.2 °F 40% 29.88 in 10.0 mi South 10.4 mph - N/A   Unknown
11:15 PM 82.4 °F 82.5 °F 59.0 °F 45% 29.88 in 10.0 mi South 9.2 mph - N/A   Unknown
11:35 PM 82.4 °F 82.5 °F 59.0 °F 45% 29.89 in 10.0 mi South 9.2 mph - N/A   Unknown
11:55 PM 80.6 °F 81.1 °F 59.0 °F 48% 29.89 in 10.0 mi South 9.2 mph - N/A   Unknown